Time;durP1;ratioP1;P1;durP2;ratioP2;P2;SDS_P1;SDS_P2;PMS_P1;PMS_P2;Temp;Humidity;BMP_temperature;BMP_pressure;BME280_temperature;BME280_humidity;BME280_pressure;Samples;Min_cycle;Max_cycle;Signal;HPM_P1;HPM_P2
2022/04/17 00:00:29;;;;;;;;;;;;;;;17.77;63.23;100960.06;5096627;28;1272;-59
2022/04/17 00:02:56;;;;;;;;;;;;;;;17.73;62.98;100959.44;5097026;28;1984;-59
2022/04/17 00:05:24;;;;;;;;;;;;;;;17.77;63.04;100974.28;5096691;28;1390;-60
2022/04/17 00:07:51;;;;;;;;;;;;;;;17.78;62.73;100975.97;5096497;28;1619;-60
2022/04/17 00:10:18;;;;;;;;;;;;;;;17.78;62.71;100986.66;5096811;28;1584;-59
2022/04/17 00:12:44;;;;;;;;;;;;;;;17.77;63.14;100982.28;5096691;28;1658;-59
2022/04/17 00:15:11;;;;;;;;;;;;;;;17.76;63.22;100990.44;5096181;28;1350;-60
2022/04/17 00:17:42;;;;;;;;;;;;;;;17.76;63.05;100996.63;5096833;28;984;-60
2022/04/17 00:20:09;;;;;;;;;;;;;;;17.76;63.04;100991.28;5096535;28;1746;-59
2022/04/17 00:22:37;;;;;;;;;;;;;;;17.80;62.90;101007.94;5095684;28;1412;-61
2022/04/17 00:25:04;;;;;;;;;;;;;;;17.76;63.03;100985.09;5096423;28;1906;-59
2022/04/17 00:27:30;;;;;;;;;;;;;;;17.73;62.84;100993.38;5096617;28;1611;-60
2022/04/17 00:29:57;;;;;;;;;;;;;;;17.75;63.18;101004.81;5096426;28;1461;-60
2022/04/17 00:32:23;;;;;;;;;;;;;;;17.72;62.89;101013.91;5096810;28;1026;-61
2022/04/17 00:34:50;;;;;;;;;;;;;;;17.76;62.64;101028.72;5096109;28;1403;-60
2022/04/17 00:37:16;;;;;;;;;;;;;;;17.74;63.13;101019.97;5096187;28;1584;-60
2022/04/17 00:39:44;;;;;;;;;;;;;;;17.73;62.82;101028.13;5096289;28;1782;-61
2022/04/17 00:42:11;;;;;;;;;;;;;;;17.72;62.88;101037.97;5096041;28;1235;-61
2022/04/17 00:44:37;;;;;;;;;;;;;;;17.73;63.08;101039.69;5096003;28;1967;-61
2022/04/17 00:47:04;;;;;;;;;;;;;;;17.72;63.09;101040.63;5095767;28;1671;-61
2022/04/17 00:49:31;;;;;;;;;;;;;;;17.72;62.62;101037.97;5095803;28;1507;-61
2022/04/17 00:51:58;;;;;;;;;;;;;;;17.72;62.76;101032.63;5095656;28;1599;-61
2022/04/17 00:54:25;;;;;;;;;;;;;;;17.76;63.00;101027.88;5095713;28;1193;-61
2022/04/17 00:56:54;;;;;;;;;;;;;;;17.73;62.34;101034.34;5095615;28;1228;-61
2022/04/17 00:59:21;;;;;;;;;;;;;;;17.74;62.95;101036.03;5095847;28;1512;-61
2022/04/17 01:01:48;;;;;;;;;;;;;;;17.71;62.97;101030.94;5095739;28;1331;-61
2022/04/17 01:04:15;;;;;;;;;;;;;;;17.72;63.01;101037.97;5095702;28;1906;-61
2022/04/17 01:06:42;;;;;;;;;;;;;;;17.69;62.67;101033.72;5095347;28;1611;-61
2022/04/17 01:09:08;;;;;;;;;;;;;;;17.69;62.42;101035.56;5095263;28;1575;-62
2022/04/17 01:11:38;;;;;;;;;;;;;;;17.73;63.25;101069.09;5095629;28;1149;-62
2022/04/17 01:14:07;;;;;;;;;;;;;;;17.72;63.01;101069.22;5095226;28;1896;-61
2022/04/17 01:16:35;;;;;;;;;;;;;;;17.73;62.25;101077.13;5095466;28;1710;-60
2022/04/17 01:19:04;;;;;;;;;;;;;;;17.73;62.85;101077.13;5095382;28;1579;-61
2022/04/17 01:21:32;;;;;;;;;;;;;;;17.70;62.84;101066.66;5090611;28;1404;-60
2022/04/17 01:29:31;;;;;;;;;;;;;;;17.67;62.36;101073.09;5089679;28;1638;-61
2022/04/17 01:31:58;;;;;;;;;;;;;;;17.68;62.71;101063.25;5095664;28;979;-61
2022/04/17 01:34:24;;;;;;;;;;;;;;;17.70;62.79;101063.97;5094215;28;1968;-61
2022/04/17 01:36:52;;;;;;;;;;;;;;;17.69;62.73;101060.47;5094860;28;1361;-61
2022/04/17 01:39:19;;;;;;;;;;;;;;;17.70;62.60;101039.91;5095526;28;969;-61
2022/04/17 01:41:46;;;;;;;;;;;;;;;17.69;62.60;101038.22;5095006;28;1770;-60
2022/04/17 01:44:12;;;;;;;;;;;;;;;17.69;62.59;101020.34;5094894;28;1976;-61
2022/04/17 01:46:39;;;;;;;;;;;;;;;17.65;62.49;101002.00;5094945;28;1579;-61
2022/04/17 01:49:06;;;;;;;;;;;;;;;17.67;62.49;101024.13;5094486;28;1192;-61
2022/04/17 01:51:38;;;;;;;;;;;;;;;17.66;62.60;101001.00;5094693;28;1623;-61
2022/04/17 01:54:07;;;;;;;;;;;;;;;17.67;62.33;101021.44;5094577;28;1607;-61
2022/04/17 01:56:34;;;;;;;;;;;;;;;17.71;62.42;101004.19;5092424;28;1646;-61
2022/04/17 01:59:00;;;;;;;;;;;;;;;17.67;62.89;101013.41;5095060;28;967;-61
2022/04/17 02:01:27;;;;;;;;;;;;;;;17.65;62.37;101004.66;5092679;28;1441;-61
2022/04/17 02:03:53;;;;;;;;;;;;;;;17.62;62.39;101000.41;5094197;28;1983;-61
2022/04/17 02:06:20;;;;;;;;;;;;;;;17.66;62.43;101020.56;5094490;28;1440;-61
2022/04/17 02:08:48;;;;;;;;;;;;;;;17.65;62.07;101026.06;5095214;28;1125;-60
2022/04/17 02:11:15;;;;;;;;;;;;;;;17.63;62.35;101038.72;5094436;28;1374;-60
2022/04/17 02:13:42;;;;;;;;;;;;;;;17.63;62.39;101039.56;5094172;28;1710;-61
2022/04/17 02:16:09;;;;;;;;;;;;;;;17.64;62.45;101029.69;5094382;28;1409;-61
2022/04/17 02:18:35;;;;;;;;;;;;;;;17.65;62.32;101026.91;5094150;28;1416;-61
2022/04/17 02:21:02;;;;;;;;;;;;;;;17.61;62.43;101019.25;5094374;28;1064;-61
2022/04/17 02:23:29;;;;;;;;;;;;;;;17.63;62.67;101033.34;5094436;28;1975;-60
2022/04/17 02:25:55;;;;;;;;;;;;;;;17.62;62.34;101053.03;5094245;28;1630;-61
2022/04/17 02:28:23;;;;;;;;;;;;;;;17.63;62.26;101039.56;5094147;28;1516;-60
2022/04/17 02:30:50;;;;;;;;;;;;;;;17.63;62.38;101049.41;5094104;28;1726;-61
2022/04/17 02:33:17;;;;;;;;;;;;;;;17.63;62.55;101049.41;5094956;28;966;-60
2022/04/17 02:35:43;;;;;;;;;;;;;;;17.61;62.21;101043.31;5094010;28;1730;-60
2022/04/17 02:38:10;;;;;;;;;;;;;;;17.61;62.65;101025.44;5094176;28;1539;-61
2022/04/17 02:40:37;;;;;;;;;;;;;;;17.63;62.51;101028.00;5093919;28;1666;-61
2022/04/17 02:43:03;;;;;;;;;;;;;;;17.61;62.21;101022.78;5094288;28;1746;-60
2022/04/17 02:45:31;;;;;;;;;;;;;;;17.60;62.28;101028.22;5094478;28;1906;-61
2022/04/17 02:47:57;;;;;;;;;;;;;;;17.63;62.42;101028.84;5098855;28;1062;-62
2022/04/17 02:50:24;;;;;;;;;;;;;;;17.61;61.96;101029.94;5098177;28;1706;-61
2022/04/17 02:52:54;;;;;;;;;;;;;;;17.61;62.06;101035.31;5097865;28;1592;-61
2022/04/17 02:55:21;;;;;;;;;;;;;;;17.60;62.45;101038.94;5098006;28;1475;-61
2022/04/17 02:57:48;;;;;;;;;;;;;;;17.62;62.13;101047.69;5097795;28;1646;-61
2022/04/17 03:00:15;;;;;;;;;;;;;;;17.63;62.29;101046.72;5097820;28;1579;-60
2022/04/17 03:05:37;;;;;;;;;;;;;;;17.60;62.07;101050.47;5097822;28;1906;-61
2022/04/17 03:08:05;;;;;;;;;;;;;;;17.59;61.95;101040.75;5097726;28;1295;-60
2022/04/17 03:10:31;;;;;;;;;;;;;;;17.61;62.28;101046.00;5097987;28;1488;-61
2022/04/17 03:12:58;;;;;;;;;;;;;;;17.58;61.69;101048.91;5097591;28;1461;-61
2022/04/17 03:15:25;;;;;;;;;;;;;;;17.58;62.28;101056.91;5097525;28;1647;-61
2022/04/17 03:17:53;;;;;;;;;;;;;;;17.61;61.74;101062.03;5098059;28;1023;-60
2022/04/17 03:20:20;;;;;;;;;;;;;;;17.57;61.54;101039.19;5097871;28;1809;-61
2022/04/17 03:22:47;;;;;;;;;;;;;;;17.56;61.83;101043.66;5097698;28;1575;-62
2022/04/17 03:25:13;;;;;;;;;;;;;;;17.57;61.83;101044.53;5097588;28;1910;-61
2022/04/17 03:27:43;;;;;;;;;;;;;;;17.58;61.95;101056.91;5097537;28;1692;-61
2022/04/17 03:30:10;;;;;;;;;;;;;;;17.56;61.97;101043.66;5097613;28;1611;-60
2022/04/17 03:32:37;;;;;;;;;;;;;;;17.57;62.45;101057.91;5097979;28;1011;-60
2022/04/17 03:35:05;;;;;;;;;;;;;;;17.55;62.12;101059.81;5097599;28;1655;-61
2022/04/17 03:37:32;;;;;;;;;;;;;;;17.56;61.94;101066.88;5097096;28;1630;-61
2022/04/17 03:39:59;;;;;;;;;;;;;;;17.57;62.19;101077.47;5097420;28;1612;-61
2022/04/17 03:42:25;;;;;;;;;;;;;;;17.54;62.05;101066.16;5092783;28;1634;-61
2022/04/17 03:44:53;;;;;;;;;;;;;;;17.56;62.25;101075.75;5096712;28;1905;-60
2022/04/17 03:47:19;;;;;;;;;;;;;;;17.54;61.97;101076.84;5097665;28;1063;-61
2022/04/17 03:49:46;;;;;;;;;;;;;;;17.55;61.32;101083.88;5097228;28;1710;-61
2022/04/17 03:52:14;;;;;;;;;;;;;;;17.53;62.03;101088.50;5096900;28;1627;-61
2022/04/17 03:54:40;;;;;;;;;;;;;;;17.55;61.89;101083.88;5097121;28;1650;-60
2022/04/17 03:57:07;;;;;;;;;;;;;;;17.54;62.01;101076.84;5096441;28;1520;-61
2022/04/17 03:59:34;;;;;;;;;;;;;;;17.55;61.96;101073.19;5096904;28;1555;-61
2022/04/17 04:02:01;;;;;;;;;;;;;;;17.54;62.16;101083.03;5096856;28;1282;-61
2022/04/17 04:04:27;;;;;;;;;;;;;;;17.56;62.08;101096.31;5096427;28;1977;-60
2022/04/17 04:06:54;;;;;;;;;;;;;;;17.55;62.09;101089.22;5096575;28;1622;-61
2022/04/17 04:09:22;;;;;;;;;;;;;;;17.57;61.95;101095.34;5096769;28;1631;-60
2022/04/17 04:11:49;;;;;;;;;;;;;;;17.56;62.21;101090.94;5096489;28;1576;-61
2022/04/17 04:14:15;;;;;;;;;;;;;;;17.55;61.94;101099.94;5096858;28;1524;-61
2022/04/17 04:16:42;;;;;;;;;;;;;;;17.50;61.84;101101.13;5096361;28;1055;-61
2022/04/17 04:19:09;;;;;;;;;;;;;;;17.51;62.12;101083.28;5096441;28;1563;-61
2022/04/17 04:21:47;;;;;;;;;;;;;;;17.50;62.04;101086.91;5096556;28;1536;-61
2022/04/17 04:24:14;;;;;;;;;;;;;;;17.46;62.22;101075.59;5092146;28;1988;-61
2022/04/17 04:26:42;;;;;;;;;;;;;;;17.53;62.09;101091.16;5096275;28;1341;-61
2022/04/17 04:29:07;;;;;;;;;;;;;;;17.53;62.04;101108.09;5096845;28;1007;-60
2022/04/17 04:31:34;;;;;;;;;;;;;;;17.49;62.33;101107.47;5096087;28;1723;-61
2022/04/17 04:34:00;;;;;;;;;;;;;;;17.49;62.02;101112.81;5096437;28;1579;-60
2022/04/17 04:36:27;;;;;;;;;;;;;;;17.53;62.04;101120.59;5096367;28;1515;-61
2022/04/17 04:38:54;;;;;;;;;;;;;;;17.51;62.01;101126.06;5094522;28;969;-61
2022/04/17 04:41:21;;;;;;;;;;;;;;;17.50;62.20;101119.84;5095705;28;1532;-61
2022/04/17 04:43:48;;;;;;;;;;;;;;;17.48;62.61;101120.94;5095695;28;1192;-61
2022/04/17 04:46:14;;;;;;;;;;;;;;;17.47;62.03;101121.94;5095920;28;1984;-61
2022/04/17 04:51:25;;;;;;;;;;;;;;;17.49;61.99;101126.19;5095131;28;1635;-61
2022/04/17 04:53:52;;;;;;;;;;;;;;;17.50;62.03;101122.53;5096006;28;1039;-61
2022/04/17 04:56:19;;;;;;;;;;;;;;;17.45;61.87;101119.38;5095822;28;1019;-61
2022/04/17 04:58:46;;;;;;;;;;;;;;;17.47;62.28;101117.44;5095343;28;1331;-61
2022/04/17 05:01:14;;;;;;;;;;;;;;;17.49;62.25;101128.00;5095096;28;1996;-61
2022/04/17 05:03:41;;;;;;;;;;;;;;;17.47;62.11;101114.75;5095652;28;1634;-61
2022/04/17 05:06:08;;;;;;;;;;;;;;;17.47;62.08;101117.44;5096063;28;1886;-61
2022/04/17 05:08:34;;;;;;;;;;;;;;;17.47;61.75;101104.06;5095015;28;1722;-61
2022/04/17 05:11:01;;;;;;;;;;;;;;;17.47;62.00;101104.06;5094441;28;1511;-61
2022/04/17 05:13:27;;;;;;;;;;;;;;;17.46;61.88;101106.84;5095425;28;1674;-61
2022/04/17 05:15:54;;;;;;;;;;;;;;;17.42;61.73;101103.53;5095491;28;1567;-60
2022/04/17 05:18:22;;;;;;;;;;;;;;;17.46;61.87;101106.84;5095741;28;1068;-60
2022/04/17 05:20:48;;;;;;;;;;;;;;;17.42;61.79;101103.53;5095106;28;1714;-61
2022/04/17 05:23:19;;;;;;;;;;;;;;;17.46;61.82;101123.72;5095088;28;1722;-60
2022/04/17 05:25:47;;;;;;;;;;;;;;;17.45;61.78;101121.19;5095230;28;1979;-60
2022/04/17 05:28:13;;;;;;;;;;;;;;;17.42;61.69;101100.88;5095349;28;1607;-61
2022/04/17 05:30:39;;;;;;;;;;;;;;;17.44;62.00;101111.47;5095210;28;1634;-61
2022/04/17 05:33:06;;;;;;;;;;;;;;;17.42;61.59;101100.88;5095690;28;1077;-60
2022/04/17 05:35:34;;;;;;;;;;;;;;;17.45;61.96;101097.13;5095234;28;1770;-60
2022/04/17 05:38:01;;;;;;;;;;;;;;;17.43;62.22;101112.44;5095008;28;1321;-61
2022/04/17 05:40:28;;;;;;;;;;;;;;;17.41;61.88;101115.22;5094775;28;1404;-61
2022/04/17 05:42:55;;;;;;;;;;;;;;;17.42;61.73;101100.88;5095080;28;1674;-60
2022/04/17 05:45:22;;;;;;;;;;;;;;;17.43;62.02;101123.97;5094847;28;1973;-60
2022/04/17 05:47:48;;;;;;;;;;;;;;;17.41;61.86;101115.22;5095249;28;1870;-60
2022/04/17 05:50:15;;;;;;;;;;;;;;;17.45;61.72;101126.53;5094903;28;1738;-61
2022/04/17 05:52:43;;;;;;;;;;;;;;;17.42;61.92;101121.41;5094587;28;1583;-61
2022/04/17 05:55:11;;;;;;;;;;;;;;;17.38;61.58;101115.44;5094495;28;1567;-61
2022/04/17 05:57:37;;;;;;;;;;;;;;;17.42;61.76;101126.75;5094788;28;1631;-60
2022/04/17 06:00:04;;;;;;;;;;;;;;;17.40;61.90;101118.00;5094495;28;1607;-61
2022/04/17 06:02:30;;;;;;;;;;;;;;;17.39;61.95;101111.81;5094868;28;1344;-61
2022/04/17 06:04:57;;;;;;;;;;;;;;;17.37;62.06;101123.56;5094661;28;1906;-60
2022/04/17 06:07:27;;;;;;;;;;;;;;;17.37;61.78;101100.38;5094716;28;1611;-61
2022/04/17 06:09:54;;;;;;;;;;;;;;;17.38;61.88;101103.91;5094328;28;1695;-60
2022/04/17 06:12:21;;;;;;;;;;;;;;;17.38;61.58;101094.06;5094623;28;1638;-61
2022/04/17 06:14:48;;;;;;;;;;;;;;;17.36;61.89;101104.00;5094365;28;1377;-60
2022/04/17 06:17:14;;;;;;;;;;;;;;;17.39;61.93;101111.81;5095155;28;1053;-60
2022/04/17 06:19:42;;;;;;;;;;;;;;;17.40;61.81;101096.63;5094538;28;1746;-61
2022/04/17 06:22:10;;;;;;;;;;;;;;;17.38;61.76;101094.06;5093985;28;1292;-61
2022/04/17 06:24:37;;;;;;;;;;;;;;;17.38;61.81;101103.91;5094110;28;1533;-59
2022/04/17 06:27:05;;;;;;;;;;;;;;;17.37;61.42;101094.16;5094487;28;1626;-60
2022/04/17 06:29:32;;;;;;;;;;;;;;;17.36;61.82;101101.34;5089985;28;1611;-60
2022/04/17 06:31:59;;;;;;;;;;;;;;;17.36;61.32;101092.47;5094884;28;1065;-60
2022/04/17 06:34:25;;;;;;;;;;;;;;;17.37;61.83;101119.09;5094412;28;1730;-60
2022/04/17 06:36:52;;;;;;;;;;;;;;;17.36;61.78;101117.38;5094455;28;1563;-59
2022/04/17 06:39:18;;;;;;;;;;;;;;;17.35;61.79;101115.69;5094541;28;1012;-60
2022/04/17 06:41:45;;;;;;;;;;;;;;;17.37;61.84;101128.91;5093938;28;1718;-60
2022/04/17 06:44:13;;;;;;;;;;;;;;;17.35;61.90;101123.72;5094037;28;1555;-59
2022/04/17 06:46:40;;;;;;;;;;;;;;;17.34;61.77;101119.31;5093805;28;1972;-60
2022/04/17 06:49:07;;;;;;;;;;;;;;;17.37;61.97;101134.25;5093870;28;1647;-60
2022/04/17 06:51:34;;;;;;;;;;;;;;;17.35;61.79;101136.19;5093624;28;1646;-61
2022/04/17 06:54:00;;;;;;;;;;;;;;;17.36;61.92;101146.78;5092246;28;1397;-61
2022/04/17 06:56:27;;;;;;;;;;;;;;;17.34;61.73;101131.84;5092970;28;1068;-61
2022/04/17 06:58:53;;;;;;;;;;;;;;;17.37;61.90;101139.59;5093228;28;1683;-61
2022/04/17 07:01:23;;;;;;;;;;;;;;;17.34;61.42;101138.03;5093768;28;1770;-61
2022/04/17 07:03:49;;;;;;;;;;;;;;;17.35;61.87;101142.41;5076223;28;1762;-61
2022/04/17 07:06:16;;;;;;;;;;;;;;;17.31;61.86;101151.66;5093793;28;1906;-61
2022/04/17 07:08:42;;;;;;;;;;;;;;;17.35;61.71;101152.25;5093939;28;1022;-61
2022/04/17 07:11:09;;;;;;;;;;;;;;;17.35;61.90;101152.25;5094076;28;1786;-61
2022/04/17 07:13:36;;;;;;;;;;;;;;;17.38;61.80;101166.22;5093742;28;1761;-60
2022/04/17 07:16:02;;;;;;;;;;;;;;;17.34;61.78;101150.56;5093643;28;1607;-61
2022/04/17 07:18:30;;;;;;;;;;;;;;;17.30;61.55;101153.44;5094450;28;978;-61
2022/04/17 07:20:57;;;;;;;;;;;;;;;17.34;61.88;101188.81;5093240;28;1702;-61
2022/04/17 07:23:23;;;;;;;;;;;;;;;17.34;61.61;101177.28;5093872;28;1754;-60
2022/04/17 07:25:50;;;;;;;;;;;;;;;17.36;61.57;101188.72;5093895;28;1929;-61
2022/04/17 07:28:16;;;;;;;;;;;;;;;17.30;61.64;101177.50;5093570;28;1647;-60
2022/04/17 07:30:43;;;;;;;;;;;;;;;17.30;61.72;101166.81;5093889;28;1603;-61
2022/04/17 07:33:10;;;;;;;;;;;;;;;17.34;61.75;101178.13;5095516;28;978;-60
2022/04/17 07:35:38;;;;;;;;;;;;;;;17.30;61.74;101176.66;5096379;28;1527;-60
2022/04/17 07:38:05;;;;;;;;;;;;;;;17.28;61.68;101168.75;5096807;28;1638;-61
2022/04/17 07:40:32;;;;;;;;;;;;;;;17.29;61.38;101189.16;5097106;28;1455;-61
2022/04/17 07:43:00;;;;;;;;;;;;;;;17.32;61.11;101174.72;5097086;28;1465;-60
2022/04/17 07:45:27;;;;;;;;;;;;;;;17.36;61.32;101197.56;5096930;28;1906;-61
2022/04/17 07:47:53;;;;;;;;;;;;;;;17.34;61.33;101193.31;5097792;28;1046;-61
2022/04/17 07:50:21;;;;;;;;;;;;;;;17.33;61.51;101188.94;5097223;28;1786;-61
2022/04/17 07:52:48;;;;;;;;;;;;;;;17.33;61.38;101181.78;5097137;28;1607;-61
2022/04/17 07:55:16;;;;;;;;;;;;;;;17.35;61.39;101195.00;5096448;28;1587;-61
2022/04/17 08:00:45;;;;;;;;;;;;;;;17.32;61.53;101180.06;5034355;28;1689;-61
2022/04/17 08:03:24;;;;;;;;;;;;;;;17.30;61.46;101182.84;5079842;28;1474;-60
2022/04/17 08:05:51;;;;;;;;;;;;;;;17.32;61.54;101184.56;5096059;28;1905;-60
2022/04/17 08:08:19;;;;;;;;;;;;;;;17.30;61.45;101172.16;5096460;28;1647;-61
2022/04/17 08:10:46;;;;;;;;;;;;;;;17.29;61.67;101169.63;5096350;28;1630;-61
2022/04/17 08:13:13;;;;;;;;;;;;;;;17.27;61.56;101167.06;5095821;28;1393;-61
2022/04/17 08:15:39;;;;;;;;;;;;;;;17.29;61.59;101180.31;5096037;28;1504;-61
2022/04/17 08:18:06;;;;;;;;;;;;;;;17.30;61.52;101180.16;5096757;28;1046;-60
2022/04/17 08:20:32;;;;;;;;;;;;;;;17.28;61.37;101176.75;5096469;28;1710;-61
2022/04/17 08:22:59;;;;;;;;;;;;;;;17.28;61.60;101183.94;5096527;28;1575;-60
2022/04/17 08:25:27;;;;;;;;;;;;;;;17.27;61.68;101167.06;5096172;28;1902;-61
2022/04/17 08:27:55;;;;;;;;;;;;;;;17.29;62.14;101182.97;5096160;28;1544;-60
2022/04/17 08:30:22;;;;;;;;;;;;;;;17.29;61.40;101178.47;5096245;28;1360;-61
2022/04/17 08:32:48;;;;;;;;;;;;;;;17.31;61.35;101183.72;5096866;28;970;-61
2022/04/17 08:35:15;;;;;;;;;;;;;;;17.29;61.53;101188.31;5096124;28;1267;-61
2022/04/17 08:37:42;;;;;;;;;;;;;;;17.30;61.58;101190.88;5096323;28;1568;-61
2022/04/17 08:40:10;;;;;;;;;;;;;;;17.27;61.57;101185.75;5095958;28;1588;-60
2022/04/17 08:42:39;;;;;;;;;;;;;;;17.30;61.71;101185.50;5095894;28;1595;-60
2022/04/17 08:45:06;;;;;;;;;;;;;;;17.28;61.60;101190.13;5091494;28;1464;-61
2022/04/17 08:47:33;;;;;;;;;;;;;;;17.25;61.20;101169.00;5096173;28;1975;-60
2022/04/17 08:50:00;;;;;;;;;;;;;;;17.26;61.48;101175.19;5095545;28;1519;-60
2022/04/17 08:52:30;;;;;;;;;;;;;;;17.21;61.36;101171.97;5095691;28;1623;-59
2022/04/17 08:54:59;;;;;;;;;;;;;;;17.23;61.54;101175.38;5095857;28;1469;-61
2022/04/17 08:57:26;;;;;;;;;;;;;;;17.26;61.57;101191.22;5087439;28;1596;-61
2022/04/17 08:59:53;;;;;;;;;;;;;;;17.24;61.85;101191.31;5095805;28;1607;-60
2022/04/17 09:02:20;;;;;;;;;;;;;;;17.26;61.47;101181.38;5095771;28;1348;-61
2022/04/17 09:04:47;;;;;;;;;;;;;;;17.21;61.58;101172.84;5095754;28;1750;-61
2022/04/17 09:07:14;;;;;;;;;;;;;;;17.25;61.27;101189.53;5094053;28;1886;-61
2022/04/17 09:09:48;;;;;;;;;;;;;;;17.26;61.32;101191.22;5094629;28;1587;-61
2022/04/17 09:12:18;;;;;;;;;;;;;;;17.26;61.26;101185.88;5095387;28;1614;-60
2022/04/17 09:14:44;;;;;;;;;;;;;;;17.25;61.24;101174.34;5095158;28;1236;-60
2022/04/17 09:17:12;;;;;;;;;;;;;;;17.27;61.19;101187.59;5091785;28;983;-61
2022/04/17 09:19:39;;;;;;;;;;;;;;;17.27;61.33;101176.91;5095187;28;1734;-61
2022/04/17 09:22:07;;;;;;;;;;;;;;;17.28;61.38;101181.25;5095171;28;1886;-60
2022/04/17 09:24:35;;;;;;;;;;;;;;;17.26;61.33;101185.88;5095205;28;1404;-61
2022/04/17 09:27:02;;;;;;;;;;;;;;;17.22;61.55;101171.88;5095168;28;1910;-61
2022/04/17 09:29:29;;;;;;;;;;;;;;;17.24;61.33;101187.81;5095119;28;1467;-61
2022/04/17 09:31:56;;;;;;;;;;;;;;;17.24;61.33;101188.66;5093805;28;1090;-60
2022/04/17 09:34:24;;;;;;;;;;;;;;;17.25;61.28;101187.69;5095207;28;1777;-60
2022/04/17 09:36:52;;;;;;;;;;;;;;;17.24;61.38;101188.66;5094903;28;1540;-60
2022/04/17 09:39:20;;;;;;;;;;;;;;;17.23;61.29;101191.44;5095552;28;996;-61
2022/04/17 09:41:56;;;;;;;;;;;;;;;17.22;61.38;101174.53;5094780;28;1719;-60
2022/04/17 09:44:45;;;;;;;;;;;;;;;17.22;61.39;101179.03;5094596;28;1379;-61
2022/04/17 09:47:14;;;;;;;;;;;;;;;17.22;61.52;101173.69;5094775;28;1909;-61
2022/04/17 09:50:01;;;;;;;;;;;;;;;17.18;61.59;101165.06;5094796;28;1425;-60
2022/04/17 09:52:28;;;;;;;;;;;;;;;17.15;61.38;101164.41;5094943;28;1469;-61
2022/04/17 09:54:56;;;;;;;;;;;;;;;17.20;61.33;101172.97;5094591;28;1572;-61
2022/04/17 09:57:29;;;;;;;;;;;;;;;17.22;61.24;101169.19;5085621;28;1624;-61
2022/04/17 09:59:56;;;;;;;;;;;;;;;17.22;60.70;101166.53;5094535;28;1619;-62
2022/04/17 10:02:23;;;;;;;;;;;;;;;17.22;60.96;101166.53;5094740;28;1404;-62
2022/04/17 10:04:50;;;;;;;;;;;;;;;17.21;60.92;101166.63;5094473;28;1683;-58
2022/04/17 10:07:19;;;;;;;;;;;;;;;17.19;60.94;101160.56;5094349;28;1971;-58
2022/04/17 10:09:46;;;;;;;;;;;;;;;17.20;61.14;101163.13;5085313;28;1568;-60
2022/04/17 10:12:14;;;;;;;;;;;;;;;17.22;61.40;101168.34;5093260;28;1357;-59
2022/04/17 10:14:41;;;;;;;;;;;;;;;17.20;61.04;101186.31;5093714;28;1243;-60
2022/04/17 10:17:08;;;;;;;;;;;;;;;17.16;60.98;101158.97;5094620;28;1030;-59
2022/04/17 10:19:36;;;;;;;;;;;;;;;17.17;60.91;101147.31;5094095;28;1547;-60
2022/04/17 10:22:03;;;;;;;;;;;;;;;17.21;61.10;101161.28;5085568;28;1611;-60
2022/04/17 10:24:32;;;;;;;;;;;;;;;17.19;61.15;101153.41;5094477;28;1595;-60
2022/04/17 10:27:00;;;;;;;;;;;;;;;17.20;61.30;101154.25;5093925;28;1984;-60
2022/04/17 10:29:29;;;;;;;;;;;;;;;17.17;61.08;101157.16;5094427;28;1640;-61
2022/04/17 10:32:09;;;;;;;;;;;;;;;17.22;60.96;101158.50;5092853;28;1057;-61
2022/04/17 10:34:48;;;;;;;;;;;;;;;17.17;61.26;101143.78;5094140;28;1651;-60
2022/04/17 10:37:22;;;;;;;;;;;;;;;17.18;61.32;101137.47;5087080;28;1384;-61
2022/04/17 10:39:51;;;;;;;;;;;;;;;17.18;61.38;101137.47;5086210;28;1440;-61
2022/04/17 10:42:18;;;;;;;;;;;;;;;17.19;61.23;101147.19;5093423;28;1650;-61
2022/04/17 10:45:01;;;;;;;;;;;;;;;17.19;61.05;101134.69;5093884;28;1014;-61
2022/04/17 10:47:29;;;;;;;;;;;;;;;17.20;60.16;101136.38;5093957;28;1975;-61
2022/04/17 10:49:57;;;;;;;;;;;;;;;17.22;61.09;101139.81;5094344;28;1789;-61
2022/04/17 10:52:30;;;;;;;;;;;;;;;17.19;61.31;101139.16;5093930;28;1587;-61
2022/04/17 10:55:07;;;;;;;;;;;;;;;17.19;61.10;101121.34;5094178;28;1519;-60
2022/04/17 10:57:42;;;;;;;;;;;;;;;17.16;60.83;101102.84;5086611;28;1592;-61
2022/04/17 11:00:25;;;;;;;;;;;;;;;17.19;61.15;101117.78;5085891;28;1576;-61
2022/04/17 11:02:52;;;;;;;;;;;;;;;17.14;61.27;101111.97;5086782;28;1416;-61
2022/04/17 11:05:35;;;;;;;;;;;;;;;17.16;61.00;101116.22;5093729;28;1987;-61
2022/04/17 11:08:18;;;;;;;;;;;;;;;17.16;61.28;101115.38;5093390;28;1977;-61
2022/04/17 11:10:51;;;;;;;;;;;;;;;17.16;61.02;101115.38;5097782;28;1253;-60
2022/04/17 11:13:18;;;;;;;;;;;;;;;17.16;61.05;101097.50;5097913;28;1595;-61
2022/04/17 11:15:49;;;;;;;;;;;;;;;17.16;61.26;101104.69;5097931;28;1607;-60
2022/04/17 11:18:20;;;;;;;;;;;;;;;17.15;61.09;101090.47;5098118;28;1067;-61
2022/04/17 11:20:52;;;;;;;;;;;;;;;17.12;61.34;101088.00;5097727;28;1746;-61
2022/04/17 11:23:33;;;;;;;;;;;;;;;17.14;61.42;101093.25;5097472;28;1790;-61
2022/04/17 11:26:01;;;;;;;;;;;;;;;17.13;61.29;101075.50;5095174;28;1828;-60
2022/04/17 11:28:34;;;;;;;;;;;;;;;17.15;61.06;101086.91;5092856;28;1971;-61
2022/04/17 11:31:00;;;;;;;;;;;;;;;17.15;60.99;101092.25;5097138;28;1428;-61
2022/04/17 11:33:28;;;;;;;;;;;;;;;17.17;61.21;101095.69;5098151;28;1073;-61
2022/04/17 11:35:54;;;;;;;;;;;;;;;17.16;61.14;101110.03;5097298;28;1414;-61
2022/04/17 11:38:21;;;;;;;;;;;;;;;17.13;61.19;101113.78;5097565;28;1707;-61
2022/04/17 11:40:49;;;;;;;;;;;;;;;17.17;61.06;101109.03;5088228;28;1818;-61
2022/04/17 11:43:17;;;;;;;;;;;;;;;17.14;61.35;101101.28;5097083;28;1611;-61
2022/04/17 11:45:45;;;;;;;;;;;;;;;17.16;60.86;101113.53;5097650;28;2083;-61
2022/04/17 11:48:12;;;;;;;;;;;;;;;17.15;61.19;101097.63;5097339;28;1902;-60
2022/04/17 11:50:39;;;;;;;;;;;;;;;17.14;61.15;101090.56;5097070;28;1598;-61
2022/04/17 11:53:06;;;;;;;;;;;;;;;17.14;61.14;101096.75;5096817;28;1559;-61
2022/04/17 11:55:34;;;;;;;;;;;;;;;17.12;61.22;101092.50;5096567;28;1275;-61
2022/04/17 11:58:01;;;;;;;;;;;;;;;17.13;61.29;101100.41;5096982;28;1659;-60
2022/04/17 12:00:29;;;;;;;;;;;;;;;17.12;61.26;101111.22;5095894;28;1611;-60
2022/04/17 12:03:00;;;;;;;;;;;;;;;17.12;61.33;101111.22;5096270;28;1447;-61
2022/04/17 12:05:27;;;;;;;;;;;;;;;17.09;61.21;101104.28;5096565;28;1615;-60
2022/04/17 12:07:58;;;;;;;;;;;;;;;17.05;61.38;101106.34;5096843;28;1905;-61
2022/04/17 12:10:24;;;;;;;;;;;;;;;17.10;61.38;101112.16;5096862;28;1649;-61
2022/04/17 12:12:51;;;;;;;;;;;;;;;17.08;61.22;101108.75;5096762;28;1619;-61
2022/04/17 12:15:19;;;;;;;;;;;;;;;17.10;61.62;101106.81;5096748;28;1593;-61
2022/04/17 12:17:56;;;;;;;;;;;;;;;17.12;61.46;101100.53;5097156;28;990;-61
2022/04/17 12:20:23;;;;;;;;;;;;;;;17.11;61.21;101105.03;5096320;28;1654;-61
2022/04/17 12:22:49;;;;;;;;;;;;;;;17.06;61.32;101083.13;5096726;28;1610;-60
2022/04/17 12:25:16;;;;;;;;;;;;;;;17.05;61.05;101103.66;5096652;28;1563;-60
2022/04/17 12:27:43;;;;;;;;;;;;;;;17.08;61.22;101098.06;5096290;28;1975;-61
2022/04/17 12:30:10;;;;;;;;;;;;;;;17.05;61.29;101103.66;5096522;28;1615;-61
2022/04/17 12:32:44;;;;;;;;;;;;;;;17.05;61.36;101101.00;5096646;28;1055;-61
2022/04/17 12:35:13;;;;;;;;;;;;;;;17.02;61.43;101092.34;5096468;28;1699;-60
2022/04/17 12:37:39;;;;;;;;;;;;;;;16.99;61.57;101076.53;5095762;28;1429;-61
2022/04/17 12:40:10;;;;;;;;;;;;;;;17.01;61.50;101085.28;5095688;28;1560;-60
2022/04/17 12:42:37;;;;;;;;;;;;;;;17.01;61.59;101096.84;5094990;28;1575;-60
2022/04/17 12:45:04;;;;;;;;;;;;;;;17.01;61.48;101085.28;5094880;28;1493;-60
2022/04/17 12:47:30;;;;;;;;;;;;;;;17.03;61.54;101086.03;5096544;28;1977;-60
2022/04/17 12:50:02;;;;;;;;;;;;;;;17.00;61.47;101089.78;5096236;28;1630;-60
2022/04/17 12:52:30;;;;;;;;;;;;;;;16.98;61.51;101065.00;5095825;28;1400;-60
2022/04/17 12:54:59;;;;;;;;;;;;;;;16.99;61.56;101074.75;5095917;28;1623;-61
2022/04/17 12:57:26;;;;;;;;;;;;;;;16.99;61.23;101076.53;5086750;28;1548;-60
2022/04/17 12:59:53;;;;;;;;;;;;;;;17.06;61.43;101093.81;5095308;28;1455;-61
2022/04/17 13:02:20;;;;;;;;;;;;;;;17.01;61.34;101070.13;5095970;28;1324;-61
2022/04/17 13:04:47;;;;;;;;;;;;;;;17.01;60.82;101077.28;5095425;28;1367;-60